DNKN/KAN METAR and TAF weather

Enter ICAO airport designator
Station Type Date Time Source
DNKN METAR 2019/12/07 09:00 UTC NOAA

DNKN 070900Z 06010KT CAVOK 25/08 Q1018 NOSIG


Station Type Date Time Source
DNKN Decoded METAR 2019/12/07 09:00 UTC NOAA

Kano, Nigeria (DNKN) 12-03N 008-32E 481M
Dec 07, 2019 - 04:00 AM EST / 2019.12.07 0900 UTC
Wind: from the ENE (060 degrees) at 12 MPH (10 KT):0
Visibility: greater than 7 mile(s):0
Temperature: 77 F (25 C)
Dew Point: 46 F (8 C)
Relative Humidity: 33%
Pressure (altimeter): 30.06 in. Hg (1018 hPa)
ob: DNKN 070900Z 06010KT CAVOK 25/08 Q1018 NOSIG
cycle: 9

Station Type Date Time Source
DNKN TAF 2019/12/07 06:21 UTC NOAA

TAF DNKN 070450Z 0706/0812 07010KT 5000 HZ
BECMG 0712/0714 CAVOK

Example: see airport list